x

Virginia Beach 64 Nm East Of Virginia Beach, Va (44014) Wave Buoy

11:50am - Mon 27th Feb 2017 All times are EST. -5 hours from GMT.

  • Sig Wave height 2.6ft
  • Swell Direction
  • Peak Period 8s
  • Average Period 7s
  • Wind
    7mph, 9mph gusts
  • Sea Temp 49°f
  • Air Temp 51°f
  • Sea Pressure 1031.2mb
  • Virginia Beach 64 Nm East Of Virginia Beach, Va
  • Virginia Beach 64 Nm East Of Virginia Beach, Va

More Historic Weather Station data

Upgrade to MSW Pro to gain access to the past 30 days of data for over 8000 Wavebouys and Weather Stations around the globe.

Join Pro

Comparision Forecast

View Surf forecast
   
Mon 02/27 11:50am 2.5ft 8s 7s 7 9 mph 1031.2mb 49f 51f
10:50am 2.5ft 9s 7s 7 9 mph 1032.3mb 49f 50f
9:50am 2.5ft 9s 7s 4 7 mph 1032mb 48f 50f
8:50am 2.5ft 8s 7s 7 9 mph 1031.3mb 48f 50f
7:50am 2.5ft 8s 7s 7 9 mph 1031mb 48f 50f
6:50am 3ft 8s 7s 4 7 mph 1030.6mb 47f 48f
5:50am 3ft 9s 6s 4
mph
1030.1mb 48f 47f
4:50am 2.5ft 9s 6s 4
mph
1029.6mb 49f 47f
3:50am 2.5ft 8s 6s 4 7 mph 1028.8mb 49f 47f
2:50am 3.5ft 9s 6s 2 4 mph 1028.7mb 50f 47f
1:50am 3.5ft 9s 6s 4
mph
1028.3mb 50f 46f
12:50am 3.5ft 9s 6s 7
mph
1027.6mb 50f 46f
Sun 02/26 11:50pm 3.5ft 9s 6s 7 9 mph 1027mb 51f 45f
10:50pm 4ft 10s 6s 7 9 mph 1027.2mb 51f 45f
9:50pm 4ft 9s 6s 4 7 mph 1027.4mb 51f 44f
8:50pm 4.5ft 9s 6s 7 9 mph 1026.4mb 50f 44f
7:50pm 4.5ft 10s 7s 4 7 mph 1025.5mb 50f 44f
6:50pm 4ft 9s 6s 4
mph
1024.7mb 51f 43f
5:50pm 4.5ft 10s 6s 4 9 mph 1023.4mb 51f 44f
4:50pm 4ft 10s 5s 7 9 mph 1022.4mb 51f 44f
3:50pm 5ft 9s 5s 7 11 mph 1021.6mb 51f 43f
2:50pm 5ft 9s 5s 13 18 mph 1020.9mb 51f 43f
1:50pm 5ft 10s 5s 13 18 mph 1021mb 51f 42f
12:50pm 5.5ft 7s 5s 16 20 mph 1020.8mb 51f 43f
11:50am 6ft 6s 5s 16 20 mph 1020.9mb 51f 43f
10:50am 6.5ft 9s 5s 16 20 mph 1020.4mb 51f 44f
9:50am 6ft 11s 5s 16 20 mph 1019.3mb 51f 45f
8:50am 6ft 10s 5s 18 22 mph 1018.4mb 51f 46f
7:50am 6ft 10s 5s 20 22 mph 1017mb 51f 46f
6:50am 6ft 10s 5s 18 22 mph 1015.4mb 51f 47f
5:50am 6.5ft 10s 5s 20 25 mph 1014mb 51f 47f
4:50am 6.5ft 10s 5s 25 29 mph 1012.3mb 51f 48f
3:50am 6ft 10s 5s 25 31 mph 1011.5mb 51f 50f
2:50am 5ft 11s 5s 22 29 mph 1010.5mb 51f 51f
1:50am 5ft 10s 6s 16 18 mph 1009.4mb 52f 52f
12:50am 6ft 11s 6s 13 18 mph 1008.4mb 52f 53f
Sat 02/25 11:50pm 7ft 11s 6s 18 20 mph 1007.4mb 52f 53f
10:50pm 7ft 11s 6s 20 25 mph 1006mb 52f 54f
9:50pm 6.5ft 11s 6s 25 29 mph 1004.5mb 52f 55f
8:50pm 6.5ft 10s 6s 27 36 mph 1001.8mb 52f 59f
7:50pm 6.5ft 11s 6s 25 29 mph 1000.8mb 53f 60f
6:50pm 5.5ft 11s 6s 25 29 mph 1000.8mb 53f 61f
5:50pm 5ft 11s 6s 20 25 mph 1000.7mb 54f 59f
4:50pm 5ft 11s 7s 20 22 mph 1001.4mb 55f 60f
3:50pm 6ft 11s 8s 16 18 mph 1002.7mb 55f 60f
2:50pm 7ft 11s 8s 13 16 mph 1003mb 56f 59f
1:50pm 7ft 11s 8s 9 11 mph 1004.2mb 56f 59f
12:50pm 6.5ft 11s 8s 7 9 mph 1005.4mb 55f 59f
11:50am 7ft 11s 8s 4 7 mph 1006.4mb 55f 58f
10:50am 6.5ft 11s 7s 4 7 mph 1007.1mb 55f 58f
9:50am 6ft 10s 7s 2 4 mph 1007.9mb 55f 58f
8:50am 6ft 11s 7s 2 4 mph 1008.2mb 55f 58f
7:50am 6.5ft 11s 7s 4
mph
1008.3mb 54f 56f
6:50am 6ft 11s 7s 7 9 mph 1007.9mb 54f 56f
5:50am 6.5ft 11s 7s 4 7 mph 1008.3mb 54f 55f
4:50am 6ft 10s 7s 4 7 mph 1008.5mb 54f 56f
3:50am 6ft 11s 7s 4 7 mph 1008.5mb 54f 55f
2:50am 6ft 11s 7s 4 7 mph 1008.8mb 54f 57f
1:50am 6.5ft 10s 7s 4
mph
1009.3mb 54f 57f
12:50am 6ft 8s 7s 4 7 mph 1009.9mb 55f 57f
Fri 02/24 11:50pm 6ft 9s 7s 9
mph
1010.4mb 55f 58f
10:50pm 6ft 9s 7s 9 11 mph 1010.7mb 55f 57f
9:50pm 6ft 8s 7s 7
mph
1011.5mb 55f 57f
8:50pm 6ft 8s 6s 4 7 mph 1011.8mb 55f 57f
7:50pm 6ft 11s 6s 4 7 mph 1012mb 55f 58f
6:50pm 6ft 9s 6s 9
mph
1012.5mb 55f 59f
5:50pm 6ft 11s 7s 11 13 mph 1012.2mb 55f 60f
4:50pm 6ft 11s 6s 7 9 mph 1012.5mb 56f 59f
3:50pm 5.5ft 11s 6s 4 7 mph 1012.5mb 57f 60f
2:50pm 6ft 8s 6s 7
mph
1012.6mb 56f 59f
1:50pm 5ft 10s 6s 7
mph
1012.8mb 56f 60f
12:50pm 5.5ft 12s 7s 7
mph
1013.2mb 55f 60f
11:50am 5.5ft 13s 6s 7 9 mph 1014.2mb 56f 59f
10:50am 5.5ft 11s 7s 2 4 mph 1014.8mb 55f 60f
9:50am 6ft 11s 7s 4 7 mph 1014.9mb 54f 58f
8:50am 5ft 11s 6s 4 7 mph 1015mb 54f 62f
7:50am 5ft 12s 7s 4 7 mph 1014.7mb 54f 62f
6:50am 4.5ft 11s 6s 7 9 mph 1014mb 54f 57f
5:50am 4ft 11s 7s 4
mph
1014.3mb 54f 56f
4:50am 4ft 11s 7s 7 9 mph 1013.8mb 54f 57f
3:50am 4.5ft 12s 7s 7
mph
1013.9mb 54f 57f
2:50am 4ft 12s 7s 7 9 mph 1013.9mb 54f 57f
1:50am 4ft 11s 6s 7 9 mph 1014.2mb 54f 58f
12:50am 3.5ft 11s 6s 7
mph
1014.6mb 54f 58f
Thu 02/23 11:50pm 4ft 12s 7s 7
mph
1014.5mb 54f 58f
10:50pm 3.5ft 11s 7s 7
mph
1014.6mb 54f 58f
9:50pm 3.5ft 11s 7s 7
mph
1014.4mb 54f 58f
8:50pm 3.5ft 10s  -  7 9 mph 1014.2mb 54f 58f
7:50pm 3.5ft 10s 7s 7 9 mph 1014.1mb 55f 58f
6:50pm 3.5ft 10s 7s 7 9 mph 1013.7mb 54f 58f
5:50pm 3.5ft 11s 6s 7
mph
1013.4mb 55f 59f